Time,TemperatureF,DewpointF,PressureIn,WindDirection,WindDirectionDegrees,WindSpeedMPH,WindSpeedGustMPH,Humidity,HourlyPrecipIn,Conditions,Clouds,dailyrainin,SoftwareType,DateUTC
2013-04-11 00:02:00,48.6,30.8,29.99,NNW,331,0.0,2.0,50,0.00,,,0.00,VWS V14.01,2013-04-11 07:02:00,
2013-04-11 00:07:00,48.6,30.8,29.99,NNW,331,1.0,3.0,50,0.00,,,0.00,VWS V14.01,2013-04-11 07:07:00,
2013-04-11 00:12:00,48.5,30.7,29.99,NNW,331,1.0,2.0,50,0.00,,,0.00,VWS V14.01,2013-04-11 07:12:00,
2013-04-11 00:17:00,48.6,30.8,29.98,NNW,331,2.0,3.0,50,0.00,,,0.00,VWS V14.01,2013-04-11 07:17:00,
2013-04-11 00:22:00,48.4,31.1,29.98,NNW,331,2.0,3.0,51,0.00,,,0.00,VWS V14.01,2013-04-11 07:22:00,
2013-04-11 00:27:00,48.2,30.9,29.98,NNW,331,1.0,2.0,51,0.00,,,0.00,VWS V14.01,2013-04-11 07:27:00,
2013-04-11 00:32:00,47.9,31.1,29.98,NNW,331,3.0,4.0,52,0.00,,,0.00,VWS V14.01,2013-04-11 07:32:00,
2013-04-11 00:37:00,47.3,31.0,29.98,NNW,331,1.0,4.0,53,0.00,,,0.00,VWS V14.01,2013-04-11 07:37:00,
2013-04-11 00:42:00,46.8,31.0,29.98,NNW,331,2.0,4.0,54,0.00,,,0.00,VWS V14.01,2013-04-11 07:42:00,
2013-04-11 00:47:00,46.5,31.2,29.98,NNW,331,0.0,2.0,55,0.00,,,0.00,VWS V14.01,2013-04-11 07:47:00,
2013-04-11 00:52:00,46.2,30.9,29.98,NNW,331,0.0,1.0,55,0.00,,,0.00,VWS V14.01,2013-04-11 07:52:00,
2013-04-11 00:57:00,46.0,31.2,29.98,NNW,331,0.0,2.0,56,0.00,,,0.00,VWS V14.01,2013-04-11 07:57:00,
2013-04-11 01:02:00,45.8,31.0,29.98,NNW,331,0.0,0.0,56,0.00,,,0.00,VWS V14.01,2013-04-11 08:02:00,
2013-04-11 01:07:00,45.7,30.9,29.98,NNW,331,0.0,1.0,56,0.00,,,0.00,VWS V14.01,2013-04-11 08:07:00,
2013-04-11 01:12:00,45.7,31.4,29.98,NNW,331,2.0,2.0,57,0.00,,,0.00,VWS V14.01,2013-04-11 08:12:00,
2013-04-11 01:17:00,45.7,30.9,29.98,NNW,331,0.0,1.0,56,0.00,,,0.00,VWS V14.01,2013-04-11 08:17:00,
2013-04-11 01:22:00,45.9,30.7,29.98,NNW,331,0.0,2.0,55,0.00,,,0.00,VWS V14.01,2013-04-11 08:22:00,
2013-04-11 01:27:00,45.9,30.7,29.98,NNW,331,2.0,2.0,55,0.00,,,0.00,VWS V14.01,2013-04-11 08:27:00,
2013-04-11 01:32:00,45.8,30.6,29.97,NNW,331,1.0,2.0,55,0.00,,,0.00,VWS V14.01,2013-04-11 08:32:00,
2013-04-11 01:37:00,45.7,30.9,29.97,NNW,331,1.0,3.0,56,0.00,,,0.00,VWS V14.01,2013-04-11 08:37:00,
2013-04-11 01:42:00,45.6,30.4,29.97,NNW,331,0.0,1.0,55,0.00,,,0.00,VWS V14.01,2013-04-11 08:42:00,
2013-04-11 01:47:00,45.6,30.8,29.97,NNW,331,2.0,3.0,56,0.00,,,0.00,VWS V14.01,2013-04-11 08:47:00,
2013-04-11 01:52:00,45.5,30.7,29.97,NNW,331,1.0,2.0,56,0.00,,,0.00,VWS V14.01,2013-04-11 08:52:00,
2013-04-11 01:57:00,45.6,30.8,29.97,NNW,331,0.0,1.0,56,0.00,,,0.00,VWS V14.01,2013-04-11 08:57:00,
2013-04-11 02:02:00,45.6,30.8,29.96,NNW,331,0.0,1.0,56,0.00,,,0.00,VWS V14.01,2013-04-11 09:02:00,
2013-04-11 02:07:00,45.6,30.4,29.96,NNW,331,0.0,0.0,55,0.00,,,0.00,VWS V14.01,2013-04-11 09:07:00,
2013-04-11 02:13:00,45.5,30.7,29.96,NNW,331,1.0,2.0,56,0.00,,,0.00,VWS V14.01,2013-04-11 09:13:00,
2013-04-11 02:18:00,45.4,30.6,29.96,NNW,331,0.0,2.0,56,0.00,,,0.00,VWS V14.01,2013-04-11 09:18:00,
2013-04-11 02:23:00,45.3,30.5,29.96,NNW,331,0.0,0.0,56,0.00,,,0.00,VWS V14.01,2013-04-11 09:23:00,
2013-04-11 02:28:00,45.3,31.0,29.96,NNW,331,0.0,0.0,57,0.00,,,0.00,VWS V14.01,2013-04-11 09:28:00,
2013-04-11 02:33:00,45.2,30.9,29.96,NNW,331,0.0,1.0,57,0.00,,,0.00,VWS V14.01,2013-04-11 09:33:00,
2013-04-11 02:38:00,45.1,30.4,29.96,NNW,331,1.0,1.0,56,0.00,,,0.00,VWS V14.01,2013-04-11 09:38:00,
2013-04-11 02:43:00,45.0,30.7,29.95,NNW,331,0.0,1.0,57,0.00,,,0.00,VWS V14.01,2013-04-11 09:43:00,
2013-04-11 02:48:00,45.0,30.7,29.95,NNW,331,0.0,2.0,57,0.00,,,0.00,VWS V14.01,2013-04-11 09:48:00,
2013-04-11 02:53:00,44.8,30.5,29.95,NNW,331,0.0,0.0,57,0.00,,,0.00,VWS V14.01,2013-04-11 09:53:00,
2013-04-11 02:58:00,44.7,30.4,29.95,NNW,331,0.0,1.0,57,0.00,,,0.00,VWS V14.01,2013-04-11 09:58:00,
2013-04-11 03:03:00,44.5,30.7,29.95,NNW,331,0.0,1.0,58,0.00,,,0.00,VWS V14.01,2013-04-11 10:03:00,
2013-04-11 03:08:00,44.3,30.0,29.94,NNW,331,0.0,3.0,57,0.00,,,0.00,VWS V14.01,2013-04-11 10:08:00,
2013-04-11 03:13:00,44.5,30.2,29.94,NNW,331,1.0,2.0,57,0.00,,,0.00,VWS V14.01,2013-04-11 10:13:00,
2013-04-11 03:18:00,44.5,30.7,29.94,NNW,331,1.0,3.0,58,0.00,,,0.00,VWS V14.01,2013-04-11 10:18:00,
2013-04-11 03:23:00,44.3,30.5,29.94,NNW,331,0.0,2.0,58,0.00,,,0.00,VWS V14.01,2013-04-11 10:23:00,
2013-04-11 03:28:00,44.0,30.6,29.94,NNW,331,1.0,2.0,59,0.00,,,0.00,VWS V14.01,2013-04-11 10:28:00,
2013-04-11 03:33:00,43.8,30.4,29.94,NNW,331,0.0,1.0,59,0.00,,,0.00,VWS V14.01,2013-04-11 10:33:00,
2013-04-11 03:38:00,43.6,30.6,29.94,NNW,331,0.0,1.0,60,0.00,,,0.00,VWS V14.01,2013-04-11 10:38:00,
2013-04-11 03:43:00,43.3,30.4,29.94,NNW,331,3.0,3.0,60,0.00,,,0.00,VWS V14.01,2013-04-11 10:43:00,
2013-04-11 03:48:00,43.1,30.6,29.94,NNW,331,3.0,5.0,61,0.00,,,0.00,VWS V14.01,2013-04-11 10:48:00,
2013-04-11 03:53:00,42.9,30.8,29.94,NNW,331,2.0,3.0,62,0.00,,,0.00,VWS V14.01,2013-04-11 10:53:00,
2013-04-11 03:58:00,42.9,30.8,29.94,NNW,331,1.0,2.0,62,0.00,,,0.00,VWS V14.01,2013-04-11 10:58:00,
2013-04-11 04:03:00,42.8,30.3,29.94,NNW,331,0.0,1.0,61,0.00,,,0.00,VWS V14.01,2013-04-11 11:03:00,
2013-04-11 04:08:00,42.9,30.4,29.94,NNW,331,0.0,2.0,61,0.00,,,0.00,VWS V14.01,2013-04-11 11:08:00,
2013-04-11 04:13:00,42.9,30.4,29.94,NNW,331,1.0,2.0,61,0.00,,,0.00,VWS V14.01,2013-04-11 11:13:00,
2013-04-11 04:18:00,43.0,30.5,29.94,NNW,331,0.0,1.0,61,0.00,,,0.00,VWS V14.01,2013-04-11 11:18:00,
2013-04-11 04:23:00,43.2,30.7,29.94,NNW,331,0.0,2.0,61,0.00,,,0.00,VWS V14.01,2013-04-11 11:23:00,
2013-04-11 04:28:00,43.4,30.5,29.94,NNW,331,2.0,2.0,60,0.00,,,0.00,VWS V14.01,2013-04-11 11:28:00,
2013-04-11 04:33:00,43.6,30.6,29.94,NNW,331,0.0,0.0,60,0.00,,,0.00,VWS V14.01,2013-04-11 11:33:00,
2013-04-11 04:38:00,43.8,30.4,29.93,NNW,331,3.0,3.0,59,0.00,,,0.00,VWS V14.01,2013-04-11 11:38:00,
2013-04-11 04:43:00,43.9,30.5,29.93,NNW,331,2.0,3.0,59,0.00,,,0.00,VWS V14.01,2013-04-11 11:43:00,
2013-04-11 04:48:00,43.8,30.4,29.94,NNW,331,0.0,0.0,59,0.00,,,0.00,VWS V14.01,2013-04-11 11:48:00,
2013-04-11 04:53:00,43.6,30.2,29.94,NNW,331,1.0,2.0,59,0.00,,,0.00,VWS V14.01,2013-04-11 11:53:00,
2013-04-11 04:58:00,43.3,30.4,29.94,NNW,331,1.0,2.0,60,0.00,,,0.00,VWS V14.01,2013-04-11 11:58:00,
2013-04-11 05:03:00,43.0,30.1,29.94,NNW,331,2.0,3.0,60,0.00,,,0.00,VWS V14.01,2013-04-11 12:03:00,
2013-04-11 05:08:00,42.7,30.2,29.93,NNW,331,0.0,2.0,61,0.00,,,0.00,VWS V14.01,2013-04-11 12:08:00,
2013-04-11 05:13:00,42.6,30.1,29.94,NNW,331,0.0,1.0,61,0.00,,,0.00,VWS V14.01,2013-04-11 12:13:00,
2013-04-11 05:18:00,42.5,30.0,29.93,NNW,331,0.0,1.0,61,0.00,,,0.00,VWS V14.01,2013-04-11 12:18:00,
2013-04-11 05:23:00,42.6,30.1,29.94,NNW,331,1.0,2.0,61,0.00,,,0.00,VWS V14.01,2013-04-11 12:23:00,
2013-04-11 05:28:00,42.8,30.3,29.94,NNW,331,0.0,0.0,61,0.00,,,0.00,VWS V14.01,2013-04-11 12:28:00,
2013-04-11 05:33:00,42.8,30.7,29.94,NNW,331,0.0,0.0,62,0.00,,,0.00,VWS V14.01,2013-04-11 12:33:00,
2013-04-11 05:38:00,42.8,30.7,29.94,NNW,331,0.0,2.0,62,0.00,,,0.00,VWS V14.01,2013-04-11 12:38:00,
2013-04-11 05:43:00,42.9,30.4,29.94,NNW,331,0.0,1.0,61,0.00,,,0.00,VWS V14.01,2013-04-11 12:43:00,
2013-04-11 05:48:00,43.2,30.7,29.94,NNW,331,0.0,1.0,61,0.00,,,0.00,VWS V14.01,2013-04-11 12:48:00,
2013-04-11 05:53:00,43.4,30.5,29.94,NNW,331,1.0,2.0,60,0.00,,,0.00,VWS V14.01,2013-04-11 12:53:00,
2013-04-11 05:58:00,43.7,30.7,29.94,NNW,331,0.0,1.0,60,0.00,,,0.00,VWS V14.01,2013-04-11 12:58:00,
2013-04-11 06:03:00,43.6,30.6,29.95,NNW,331,1.0,2.0,60,0.00,,,0.00,VWS V14.01,2013-04-11 13:03:00,
2013-04-11 06:08:00,43.6,30.2,29.95,NNW,331,1.0,2.0,59,0.00,,,0.00,VWS V14.01,2013-04-11 13:08:00,
2013-04-11 06:13:00,43.6,30.2,29.95,NNW,331,0.0,2.0,59,0.00,,,0.00,VWS V14.01,2013-04-11 13:13:00,
2013-04-11 06:18:00,43.8,30.0,29.95,NNW,331,0.0,1.0,58,0.00,,,0.00,VWS V14.01,2013-04-11 13:18:00,
2013-04-11 06:23:00,44.2,30.0,29.95,NNW,331,0.0,1.0,57,0.00,,,0.00,VWS V14.01,2013-04-11 13:23:00,
2013-04-11 06:28:00,44.4,30.1,29.95,NNW,331,0.0,0.0,57,0.00,,,0.00,VWS V14.01,2013-04-11 13:28:00,
2013-04-11 06:33:00,45.0,30.3,29.95,NNW,331,0.0,0.0,56,0.00,,,0.00,VWS V14.01,2013-04-11 13:33:00,
2013-04-11 06:38:00,45.5,31.2,29.95,NNW,331,1.0,1.0,57,0.00,,,0.00,VWS V14.01,2013-04-11 13:38:00,
2013-04-11 06:43:00,45.7,31.4,29.95,NNW,331,1.0,3.0,57,0.00,,,0.00,VWS V14.01,2013-04-11 13:43:00,
2013-04-11 06:48:00,45.9,31.5,29.95,NNW,332,3.0,4.0,57,0.00,,,0.00,VWS V14.01,2013-04-11 13:48:00,
2013-04-11 06:56:00,46.3,31.9,29.96,NNW,333,0.0,3.0,57,0.00,,,0.00,VWS V14.01,2013-04-11 13:56:00,
2013-04-11 07:03:00,47.2,32.3,29.96,NNW,335,0.0,3.0,56,0.00,,,0.00,VWS V14.01,2013-04-11 14:03:00,
2013-04-11 07:08:00,47.9,32.5,29.96,NNW,335,0.0,2.0,55,0.00,,,0.00,VWS V14.01,2013-04-11 14:08:00,
2013-04-11 07:13:00,48.9,32.5,29.96,NNW,335,1.0,2.0,53,0.00,,,0.00,VWS V14.01,2013-04-11 14:13:00,
2013-04-11 07:18:00,50.2,32.3,29.96,NNW,335,0.0,3.0,50,0.00,,,0.00,VWS V14.01,2013-04-11 14:18:00,
2013-04-11 07:23:00,51.6,32.6,29.95,NNW,335,0.0,1.0,48,0.00,,,0.00,VWS V14.01,2013-04-11 14:23:00,
2013-04-11 07:28:00,52.8,32.1,29.96,NNW,335,0.0,1.0,45,0.00,,,0.00,VWS V14.01,2013-04-11 14:28:00,
2013-04-11 07:33:00,53.9,31.9,29.96,NNW,335,0.0,2.0,43,0.00,,,0.00,VWS V14.01,2013-04-11 14:33:00,
2013-04-11 07:38:00,55.0,31.8,29.96,NNW,335,0.0,1.0,41,0.00,,,0.00,VWS V14.01,2013-04-11 14:38:00,
2013-04-11 07:43:00,56.1,30.9,29.96,NNW,335,0.0,0.0,38,0.00,,,0.00,VWS V14.01,2013-04-11 14:43:00,
2013-04-11 07:48:00,56.4,31.1,29.96,NNW,335,0.0,0.0,38,0.00,,,0.00,VWS V14.01,2013-04-11 14:48:00,
2013-04-11 07:53:00,57.3,31.9,29.96,NNW,335,0.0,0.0,38,0.00,,,0.00,VWS V14.01,2013-04-11 14:53:00,
2013-04-11 07:58:00,58.4,31.6,29.96,NNW,335,0.0,0.0,36,0.00,,,0.00,VWS V14.01,2013-04-11 14:58:00,
2013-04-11 08:03:00,58.8,31.9,29.96,NNW,335,0.0,1.0,36,0.00,,,0.00,VWS V14.01,2013-04-11 15:03:00,
2013-04-11 08:08:00,59.4,31.8,29.96,NNW,335,0.0,2.0,35,0.00,,,0.00,VWS V14.01,2013-04-11 15:08:00,
2013-04-11 08:13:00,59.7,32.0,29.96,NW,315,0.0,3.0,35,0.00,,,0.00,VWS V14.01,2013-04-11 15:13:00,
2013-04-11 08:18:00,60.0,30.8,29.96,NW,315,1.0,3.0,33,0.00,,,0.00,VWS V14.01,2013-04-11 15:18:00,
2013-04-11 08:23:00,60.5,31.3,29.96,NW,315,0.0,2.0,33,0.00,,,0.00,VWS V14.01,2013-04-11 15:23:00,
2013-04-11 08:28:00,60.8,31.5,29.96,NW,313,0.0,1.0,33,0.00,,,0.00,VWS V14.01,2013-04-11 15:28:00,
2013-04-11 08:33:00,61.3,30.4,29.96,NW,313,0.0,3.0,31,0.00,,,0.00,VWS V14.01,2013-04-11 15:33:00,
2013-04-11 08:38:00,61.4,31.3,29.95,NW,313,0.0,2.0,32,0.00,,,0.00,VWS V14.01,2013-04-11 15:38:00,
2013-04-11 08:43:00,62.0,31.8,29.95,WNW,302,1.0,4.0,32,0.00,,,0.00,VWS V14.01,2013-04-11 15:43:00,
2013-04-11 08:48:00,62.1,31.1,29.95,WNW,286,3.0,5.0,31,0.00,,,0.00,VWS V14.01,2013-04-11 15:48:00,
2013-04-11 08:54:00,62.0,30.2,29.95,WNW,286,2.0,3.0,30,0.00,,,0.00,VWS V14.01,2013-04-11 15:54:00,
2013-04-11 08:59:00,62.3,30.5,29.95,West,275,1.0,5.0,30,0.00,,,0.00,VWS V14.01,2013-04-11 15:59:00,
2013-04-11 09:04:00,63.3,29.7,29.95,West,275,1.0,2.0,28,0.00,,,0.00,VWS V14.01,2013-04-11 16:04:00,
2013-04-11 09:09:00,62.3,28.8,29.95,West,275,0.0,4.0,28,0.00,,,0.00,VWS V14.01,2013-04-11 16:09:00,
2013-04-11 09:14:00,63.4,30.6,29.95,West,274,3.0,5.0,29,0.00,,,0.00,VWS V14.01,2013-04-11 16:14:00,
2013-04-11 09:19:00,64.6,30.8,29.95,West,274,5.0,7.0,28,0.00,,,0.00,VWS V14.01,2013-04-11 16:19:00,
2013-04-11 09:24:00,64.5,29.8,29.95,West,273,0.0,7.0,27,0.00,,,0.00,VWS V14.01,2013-04-11 16:24:00,
2013-04-11 09:29:00,65.6,30.8,29.95,West,273,1.0,5.0,27,0.00,,,0.00,VWS V14.01,2013-04-11 16:29:00,
2013-04-11 09:34:00,65.2,30.4,29.95,WSW,246,0.0,8.0,27,0.00,,,0.00,VWS V14.01,2013-04-11 16:34:00,
2013-04-11 09:39:00,65.8,30.0,29.95,WSW,246,0.0,5.0,26,0.00,,,0.00,VWS V14.01,2013-04-11 16:39:00,
2013-04-11 09:44:00,65.9,30.1,29.95,SW,232,6.0,11.0,26,0.00,,,0.00,VWS V14.01,2013-04-11 16:44:00,
2013-04-11 09:49:00,65.1,29.4,29.95,SW,232,4.0,5.0,26,0.00,,,0.00,VWS V14.01,2013-04-11 16:49:00,
2013-04-11 09:54:00,66.4,30.5,29.95,SW,232,0.0,6.0,26,0.00,,,0.00,VWS V14.01,2013-04-11 16:54:00,
2013-04-11 09:59:00,66.4,28.5,29.95,SW,231,0.0,8.0,24,0.00,,,0.00,VWS V14.01,2013-04-11 16:59:00,
2013-04-11 10:09:00,67.7,30.6,29.94,SW,234,6.0,8.0,25,0.00,,,0.00,VWS V14.01,2013-04-11 17:09:00,
2013-04-11 10:14:00,67.2,30.2,29.94,SW,231,4.0,9.0,25,0.00,,,0.00,VWS V14.01,2013-04-11 17:14:00,
2013-04-11 10:19:00,67.7,30.6,29.94,SW,227,5.0,6.0,25,0.00,,,0.00,VWS V14.01,2013-04-11 17:19:00,
2013-04-11 10:24:00,67.5,30.5,29.94,SSW,207,4.0,8.0,25,0.00,,,0.00,VWS V14.01,2013-04-11 17:24:00,
2013-04-11 10:29:00,67.8,29.7,29.94,SW,215,2.0,8.0,24,0.00,,,0.00,VWS V14.01,2013-04-11 17:29:00,
2013-04-11 10:34:00,67.6,29.6,29.94,SSW,210,2.0,7.0,24,0.00,,,0.00,VWS V14.01,2013-04-11 17:34:00,
2013-04-11 10:39:00,67.1,29.1,29.93,SW,219,7.0,7.0,24,0.00,,,0.00,VWS V14.01,2013-04-11 17:39:00,
2013-04-11 10:44:00,68.4,29.2,29.93,SW,217,2.0,6.0,23,0.00,,,0.00,VWS V14.01,2013-04-11 17:44:00,
2013-04-11 10:49:00,67.5,28.4,29.93,SW,226,2.0,7.0,23,0.00,,,0.00,VWS V14.01,2013-04-11 17:49:00,
2013-04-11 10:54:00,69.0,28.6,29.92,SW,225,3.0,9.0,22,0.00,,,0.00,VWS V14.01,2013-04-11 17:54:00,
2013-04-11 10:59:00,67.8,27.6,29.92,SW,234,0.0,6.0,22,0.00,,,0.00,VWS V14.01,2013-04-11 17:59:00,
2013-04-11 11:04:00,66.8,27.8,29.92,SW,234,4.0,4.0,23,0.00,,,0.00,VWS V14.01,2013-04-11 18:04:00,
2013-04-11 11:09:00,68.1,27.9,29.92,SW,224,4.0,7.0,22,0.00,,,0.00,VWS V14.01,2013-04-11 18:09:00,
2013-04-11 11:14:00,68.7,28.4,29.91,SSW,209,2.0,6.0,22,0.00,,,0.00,VWS V14.01,2013-04-11 18:14:00,
2013-04-11 11:19:00,69.0,28.6,29.91,SSW,209,4.0,5.0,22,0.00,,,0.00,VWS V14.01,2013-04-11 18:19:00,
2013-04-11 11:24:00,69.0,27.5,29.91,SSW,209,1.0,6.0,21,0.00,,,0.00,VWS V14.01,2013-04-11 18:24:00,
2013-04-11 11:29:00,69.1,28.7,29.91,SSW,209,3.0,5.0,22,0.00,,,0.00,VWS V14.01,2013-04-11 18:29:00,
2013-04-11 11:34:00,68.5,27.1,29.91,SSW,209,0.0,5.0,21,0.00,,,0.00,VWS V14.01,2013-04-11 18:34:00,
2013-04-11 11:39:00,70.3,27.4,29.91,SSW,209,0.0,5.0,20,0.00,,,0.00,VWS V14.01,2013-04-11 18:39:00,
2013-04-11 11:44:00,69.2,28.8,29.90,SSW,209,0.0,4.0,22,0.00,,,0.00,VWS V14.01,2013-04-11 18:44:00,
2013-04-11 11:49:00,70.1,28.4,29.90,SSW,209,2.0,5.0,21,0.00,,,0.00,VWS V14.01,2013-04-11 18:49:00,
2013-04-11 11:54:00,71.8,27.4,29.90,SE,136,2.0,7.0,19,0.00,,,0.00,VWS V14.01,2013-04-11 18:54:00,
2013-04-11 11:59:00,72.5,27.9,29.89,SE,142,1.0,7.0,19,0.00,,,0.00,VWS V14.01,2013-04-11 18:59:00,
2013-04-11 12:04:00,73.3,28.6,29.89,SE,142,4.0,6.0,19,0.00,,,0.00,VWS V14.01,2013-04-11 19:04:00,
2013-04-11 12:09:00,70.6,26.4,29.89,SE,142,0.0,5.0,19,0.00,,,0.00,VWS V14.01,2013-04-11 19:09:00,
2013-04-11 12:14:00,71.1,28.0,29.88,SE,142,1.0,2.0,20,0.00,,,0.00,VWS V14.01,2013-04-11 19:14:00,
2013-04-11 12:19:00,71.9,27.4,29.88,SE,134,5.0,9.0,19,0.00,,,0.00,VWS V14.01,2013-04-11 19:19:00,
2013-04-11 12:24:00,73.6,27.5,29.88,SE,140,4.0,7.0,18,0.00,,,0.00,VWS V14.01,2013-04-11 19:24:00,
2013-04-11 12:29:00,74.9,28.6,29.88,South,191,1.0,6.0,18,0.00,,,0.00,VWS V14.01,2013-04-11 19:29:00,
2013-04-11 12:34:00,75.4,27.6,29.88,SSW,192,1.0,8.0,17,0.00,,,0.00,VWS V14.01,2013-04-11 19:34:00,
2013-04-11 12:39:00,75.0,27.3,29.88,SSW,198,1.0,9.0,17,0.00,,,0.00,VWS V14.01,2013-04-11 19:39:00,
2013-04-11 12:44:00,74.9,28.6,29.88,SSW,201,5.0,8.0,18,0.00,,,0.00,VWS V14.01,2013-04-11 19:44:00,
2013-04-11 12:49:00,74.6,29.7,29.87,SW,236,0.0,6.0,19,0.00,,,0.00,VWS V14.01,2013-04-11 19:49:00,
2013-04-11 12:54:00,75.0,28.7,29.87,WSW,246,4.0,6.0,18,0.00,,,0.00,VWS V14.01,2013-04-11 19:54:00,
2013-04-11 12:59:00,73.0,28.3,29.87,WSW,255,4.0,5.0,19,0.00,,,0.00,VWS V14.01,2013-04-11 19:59:00,
2013-04-11 13:04:00,74.5,28.2,29.87,WSW,248,3.0,7.0,18,0.00,,,0.00,VWS V14.01,2013-04-11 20:04:00,
2013-04-11 13:09:00,75.7,29.2,29.86,WSW,248,1.0,6.0,18,0.00,,,0.00,VWS V14.01,2013-04-11 20:09:00,
2013-04-11 13:14:00,75.1,27.4,29.86,WSW,254,0.0,7.0,17,0.00,,,0.00,VWS V14.01,2013-04-11 20:14:00,
2013-04-11 13:19:00,75.3,27.5,29.86,West,279,4.0,8.0,17,0.00,,,0.00,VWS V14.01,2013-04-11 20:19:00,
2013-04-11 13:24:00,73.7,27.6,29.85,West,279,1.0,6.0,18,0.00,,,0.00,VWS V14.01,2013-04-11 20:24:00,
2013-04-11 13:29:00,74.0,29.2,29.85,WNW,294,2.0,3.0,19,0.00,,,0.00,VWS V14.01,2013-04-11 20:29:00,
2013-04-11 13:34:00,75.8,29.3,29.85,WNW,293,5.0,5.0,18,0.00,,,0.00,VWS V14.01,2013-04-11 20:34:00,
2013-04-11 13:39:00,76.9,28.8,29.84,WNW,285,3.0,6.0,17,0.00,,,0.00,VWS V14.01,2013-04-11 20:39:00,
2013-04-11 13:44:00,76.6,27.1,29.84,West,272,4.0,7.0,16,0.00,,,0.00,VWS V14.01,2013-04-11 20:44:00,
2013-04-11 13:49:00,77.6,29.4,29.84,SSW,201,1.0,12.0,17,0.00,,,0.00,VWS V14.01,2013-04-11 20:49:00,
2013-04-11 13:54:00,77.6,27.9,29.84,SW,221,5.0,11.0,16,0.00,,,0.00,VWS V14.01,2013-04-11 20:54:00,
2013-04-11 13:59:00,77.5,27.8,29.84,SW,222,2.0,9.0,16,0.00,,,0.00,VWS V14.01,2013-04-11 20:59:00,
2013-04-11 14:04:00,77.8,28.1,29.83,SSW,213,5.0,11.0,16,0.00,,,0.00,VWS V14.01,2013-04-11 21:04:00,
2013-04-11 14:09:00,77.1,27.5,29.83,SW,219,3.0,6.0,16,0.00,,,0.00,VWS V14.01,2013-04-11 21:09:00,
2013-04-11 14:14:00,77.8,28.1,29.83,SW,234,3.0,9.0,16,0.00,,,0.00,VWS V14.01,2013-04-11 21:14:00,
2013-04-11 14:19:00,76.7,27.2,29.82,WSW,255,3.0,7.0,16,0.00,,,0.00,VWS V14.01,2013-04-11 21:19:00,
2013-04-11 14:25:00,76.6,28.6,29.82,WSW,252,1.0,6.0,17,0.00,,,0.00,VWS V14.01,2013-04-11 21:25:00,
2013-04-11 14:30:00,76.3,26.9,29.82,WSW,250,2.0,8.0,16,0.00,,,0.00,VWS V14.01,2013-04-11 21:30:00,
2013-04-11 14:35:00,76.2,28.2,29.82,WSW,250,2.0,7.0,17,0.00,,,0.00,VWS V14.01,2013-04-11 21:35:00,
2013-04-11 14:40:00,76.9,27.3,29.81,WSW,250,1.0,6.0,16,0.00,,,0.00,VWS V14.01,2013-04-11 21:40:00,
2013-04-11 14:45:00,76.9,25.8,29.80,WSW,243,0.0,9.0,15,0.00,,,0.00,VWS V14.01,2013-04-11 21:45:00,
2013-04-11 14:50:00,76.2,28.2,29.80,WSW,243,2.0,5.0,17,0.00,,,0.00,VWS V14.01,2013-04-11 21:50:00,
2013-04-11 14:55:00,75.8,26.5,29.80,West,267,3.0,8.0,16,0.00,,,0.00,VWS V14.01,2013-04-11 21:55:00,
2013-04-11 15:00:00,75.5,26.2,29.80,West,269,2.0,6.0,16,0.00,,,0.00,VWS V14.01,2013-04-11 22:00:00,
2013-04-11 15:05:00,75.6,24.7,29.80,WNW,287,5.0,7.0,15,0.00,,,0.00,VWS V14.01,2013-04-11 22:05:00,
2013-04-11 15:10:00,74.6,25.5,29.79,NW,315,3.0,8.0,16,0.00,,,0.00,VWS V14.01,2013-04-11 22:10:00,
2013-04-11 15:15:00,74.4,25.3,29.79,NW,309,0.0,8.0,16,0.00,,,0.00,VWS V14.01,2013-04-11 22:15:00,
2013-04-11 15:20:00,75.7,24.8,29.79,NW,309,5.0,7.0,15,0.00,,,0.00,VWS V14.01,2013-04-11 22:20:00,
2013-04-11 15:25:00,75.7,24.8,29.79,NW,310,3.0,7.0,15,0.00,,,0.00,VWS V14.01,2013-04-11 22:25:00,
2013-04-11 15:30:00,75.5,24.7,29.79,NNW,337,5.0,10.0,15,0.00,,,0.00,VWS V14.01,2013-04-11 22:30:00,
2013-04-11 15:35:00,76.3,23.6,29.79,NW,313,0.0,9.0,14,0.00,,,0.00,VWS V14.01,2013-04-11 22:35:00,
2013-04-11 15:40:00,75.1,24.3,29.78,NNW,329,4.0,12.0,15,0.00,,,0.00,VWS V14.01,2013-04-11 22:40:00,
2013-04-11 15:45:00,74.9,24.2,29.78,NW,319,2.0,11.0,15,0.00,,,0.00,VWS V14.01,2013-04-11 22:45:00,
2013-04-11 15:50:00,74.7,22.4,29.79,NW,325,2.0,9.0,14,0.00,,,0.00,VWS V14.01,2013-04-11 22:50:00,
2013-04-11 15:55:00,74.5,22.2,29.78,North,349,4.0,12.0,14,0.00,,,0.00,VWS V14.01,2013-04-11 22:55:00,
2013-04-11 16:00:00,73.8,23.3,29.78,NW,312,3.0,9.0,15,0.00,,,0.00,VWS V14.01,2013-04-11 23:00:00,
2013-04-11 16:05:00,74.0,23.5,29.78,NNW,333,4.0,9.0,15,0.00,,,0.00,VWS V14.01,2013-04-11 23:05:00,
2013-04-11 16:10:00,75.1,22.7,29.78,NW,323,6.0,10.0,14,0.00,,,0.00,VWS V14.01,2013-04-11 23:10:00,
2013-04-11 16:15:00,75.3,22.9,29.78,NW,325,6.0,8.0,14,0.00,,,0.00,VWS V14.01,2013-04-11 23:15:00,
2013-04-11 16:20:00,74.8,22.5,29.78,NW,325,4.0,10.0,14,0.00,,,0.00,VWS V14.01,2013-04-11 23:20:00,
2013-04-11 16:25:00,74.4,22.1,29.78,NW,324,4.0,10.0,14,0.00,,,0.00,VWS V14.01,2013-04-11 23:25:00,
2013-04-11 16:30:00,74.4,22.1,29.78,NW,309,1.0,7.0,14,0.00,,,0.00,VWS V14.01,2013-04-11 23:30:00,
2013-04-11 16:35:00,74.3,22.1,29.78,NNW,327,3.0,7.0,14,0.00,,,0.00,VWS V14.01,2013-04-11 23:35:00,
2013-04-11 16:40:00,74.9,22.5,29.77,NW,305,2.0,5.0,14,0.00,,,0.00,VWS V14.01,2013-04-11 23:40:00,
2013-04-11 16:45:00,75.0,22.6,29.77,NW,315,3.0,7.0,14,0.00,,,0.00,VWS V14.01,2013-04-11 23:45:00,
2013-04-11 16:50:00,75.4,22.9,29.77,NW,319,5.0,9.0,14,0.00,,,0.00,VWS V14.01,2013-04-11 23:50:00,
2013-04-11 16:55:00,75.1,22.7,29.77,NW,325,6.0,8.0,14,0.00,,,0.00,VWS V14.01,2013-04-11 23:55:00,
2013-04-11 17:00:00,74.4,22.1,29.77,NW,314,5.0,11.0,14,0.00,,,0.00,VWS V14.01,2013-04-12 00:00:00,
2013-04-11 17:05:00,73.9,23.4,29.77,NW,322,6.0,10.0,15,0.00,,,0.00,VWS V14.01,2013-04-12 00:05:00,
2013-04-11 17:10:00,73.8,23.3,29.77,NNW,336,2.0,8.0,15,0.00,,,0.00,VWS V14.01,2013-04-12 00:10:00,
2013-04-11 17:15:00,74.1,23.5,29.77,NW,326,1.0,7.0,15,0.00,,,0.00,VWS V14.01,2013-04-12 00:15:00,
2013-04-11 17:20:00,73.8,23.3,29.76,NW,325,3.0,8.0,15,0.00,,,0.00,VWS V14.01,2013-04-12 00:20:00,
2013-04-11 17:25:00,73.9,23.4,29.76,NW,319,5.0,11.0,15,0.00,,,0.00,VWS V14.01,2013-04-12 00:25:00,
2013-04-11 17:30:00,74.0,23.5,29.76,NW,324,5.0,9.0,15,0.00,,,0.00,VWS V14.01,2013-04-12 00:30:00,
2013-04-11 17:35:00,73.8,23.3,29.76,NW,324,2.0,4.0,15,0.00,,,0.00,VWS V14.01,2013-04-12 00:35:00,
2013-04-11 17:40:00,73.7,23.2,29.76,NW,325,7.0,8.0,15,0.00,,,0.00,VWS V14.01,2013-04-12 00:40:00,
2013-04-11 17:45:00,73.3,22.9,29.76,NW,322,4.0,7.0,15,0.00,,,0.00,VWS V14.01,2013-04-12 00:45:00,
2013-04-11 17:50:00,73.3,22.9,29.76,NW,313,1.0,6.0,15,0.00,,,0.00,VWS V14.01,2013-04-12 00:50:00,
2013-04-11 17:55:00,73.1,22.7,29.76,NW,310,3.0,5.0,15,0.00,,,0.00,VWS V14.01,2013-04-12 00:55:00,
2013-04-11 18:00:00,72.7,24.0,29.76,NNW,339,0.0,8.0,16,0.00,,,0.00,VWS V14.01,2013-04-12 01:00:00,
2013-04-11 18:05:00,73.0,22.7,29.76,NNW,339,5.0,6.0,15,0.00,,,0.00,VWS V14.01,2013-04-12 01:05:00,
2013-04-11 18:10:00,72.7,22.4,29.76,NW,321,3.0,8.0,15,0.00,,,0.00,VWS V14.01,2013-04-12 01:10:00,
2013-04-11 18:15:00,72.3,22.1,29.76,NW,322,5.0,6.0,15,0.00,,,0.00,VWS V14.01,2013-04-12 01:15:00,
2013-04-11 18:20:00,71.8,23.2,29.76,NNW,336,3.0,7.0,16,0.00,,,0.00,VWS V14.01,2013-04-12 01:20:00,
2013-04-11 18:25:00,71.5,23.0,29.76,NNW,336,3.0,6.0,16,0.00,,,0.00,VWS V14.01,2013-04-12 01:25:00,
2013-04-11 18:30:00,71.2,22.8,29.76,NNE,14,5.0,5.0,16,0.00,,,0.00,VWS V14.01,2013-04-12 01:30:00,
2013-04-11 18:35:00,70.6,22.3,29.76,NNE,12,3.0,6.0,16,0.00,,,0.00,VWS V14.01,2013-04-12 01:35:00,
2013-04-11 18:40:00,70.1,23.3,29.76,NNE,12,3.0,6.0,17,0.00,,,0.00,VWS V14.01,2013-04-12 01:40:00,
2013-04-11 18:45:00,69.5,22.8,29.76,NNE,12,1.0,6.0,17,0.00,,,0.00,VWS V14.01,2013-04-12 01:45:00,
2013-04-11 18:50:00,69.0,22.4,29.76,NNE,12,4.0,5.0,17,0.00,,,0.00,VWS V14.01,2013-04-12 01:50:00,
2013-04-11 18:55:00,68.6,23.4,29.76,NNE,12,2.0,5.0,18,0.00,,,0.00,VWS V14.01,2013-04-12 01:55:00,
2013-04-11 19:00:00,67.8,24.1,29.76,NNE,12,2.0,4.0,19,0.00,,,0.00,VWS V14.01,2013-04-12 02:00:00,
2013-04-11 19:05:00,67.2,23.6,29.76,NNE,12,4.0,5.0,19,0.00,,,0.00,VWS V14.01,2013-04-12 02:05:00,
2013-04-11 19:10:00,66.7,24.4,29.76,NNE,12,3.0,5.0,20,0.00,,,0.00,VWS V14.01,2013-04-12 02:10:00,
2013-04-11 19:15:00,66.1,25.1,29.76,NNE,12,3.0,4.0,21,0.00,,,0.00,VWS V14.01,2013-04-12 02:15:00,
2013-04-11 19:20:00,65.7,24.7,29.76,NNE,12,3.0,5.0,21,0.00,,,0.00,VWS V14.01,2013-04-12 02:20:00,
2013-04-11 19:25:00,65.4,24.5,29.76,NNE,12,3.0,5.0,21,0.00,,,0.00,VWS V14.01,2013-04-12 02:25:00,
2013-04-11 19:30:00,65.3,24.4,29.76,NNE,12,2.0,5.0,21,0.00,,,0.00,VWS V14.01,2013-04-12 02:30:00,
2013-04-11 19:35:00,65.1,25.3,29.76,NNE,12,4.0,6.0,22,0.00,,,0.00,VWS V14.01,2013-04-12 02:35:00,
2013-04-11 19:40:00,65.0,25.3,29.76,NNE,12,5.0,6.0,22,0.00,,,0.00,VWS V14.01,2013-04-12 02:40:00,
2013-04-11 19:45:00,65.2,24.3,29.76,NNE,12,4.0,7.0,21,0.00,,,0.00,VWS V14.01,2013-04-12 02:45:00,
2013-04-11 19:50:00,65.4,24.5,29.76,NNE,12,4.0,6.0,21,0.00,,,0.00,VWS V14.01,2013-04-12 02:50:00,
2013-04-11 19:55:00,65.4,24.5,29.77,NNE,12,5.0,6.0,21,0.00,,,0.00,VWS V14.01,2013-04-12 02:55:00,
2013-04-11 20:00:00,65.2,25.4,29.77,NNE,12,4.0,7.0,22,0.00,,,0.00,VWS V14.01,2013-04-12 03:00:00,
2013-04-11 20:05:00,65.0,25.3,29.77,NNE,12,0.0,5.0,22,0.00,,,0.00,VWS V14.01,2013-04-12 03:05:00,
2013-04-11 20:10:00,64.3,27.8,29.77,NNE,12,1.0,4.0,25,0.00,,,0.00,VWS V14.01,2013-04-12 03:10:00,
2013-04-11 20:15:00,63.6,27.2,29.77,NNE,12,1.0,4.0,25,0.00,,,0.00,VWS V14.01,2013-04-12 03:15:00,
2013-04-11 20:20:00,63.2,27.8,29.77,NNE,12,1.0,4.0,26,0.00,,,0.00,VWS V14.01,2013-04-12 03:20:00,
2013-04-11 20:25:00,63.2,26.8,29.77,NNE,12,3.0,4.0,25,0.00,,,0.00,VWS V14.01,2013-04-12 03:25:00,
2013-04-11 20:30:00,63.2,26.8,29.77,NNE,12,2.0,5.0,25,0.00,,,0.00,VWS V14.01,2013-04-12 03:30:00,
2013-04-11 20:35:00,63.1,25.8,29.77,NNE,12,2.0,4.0,24,0.00,,,0.00,VWS V14.01,2013-04-12 03:35:00,
2013-04-11 20:40:00,62.9,26.6,29.77,NNE,12,1.0,4.0,25,0.00,,,0.00,VWS V14.01,2013-04-12 03:40:00,
2013-04-11 20:45:00,62.7,26.4,29.77,NNE,12,2.0,3.0,25,0.00,,,0.00,VWS V14.01,2013-04-12 03:45:00,
2013-04-11 20:50:00,62.2,26.9,29.77,NNE,12,1.0,3.0,26,0.00,,,0.00,VWS V14.01,2013-04-12 03:50:00,
2013-04-11 20:55:00,61.9,26.7,29.77,NNE,12,0.0,3.0,26,0.00,,,0.00,VWS V14.01,2013-04-12 03:55:00,
2013-04-11 21:00:00,61.5,26.3,29.77,NNE,12,1.0,3.0,26,0.00,,,0.00,VWS V14.01,2013-04-12 04:00:00,
2013-04-11 21:05:00,61.4,25.3,29.77,NNE,12,2.0,3.0,25,0.00,,,0.00,VWS V14.01,2013-04-12 04:05:00,
2013-04-11 21:06:00,61.4,25.3,29.77,NNE,12,2.0,3.0,25,0.00,,,0.00,VWS V14.01,2013-04-12 04:06:00,
2013-04-11 21:11:00,61.5,25.4,29.77,NNE,12,4.0,5.0,25,0.00,,,0.00,VWS V14.01,2013-04-12 04:11:00,
2013-04-11 21:16:00,61.5,25.4,29.77,NNE,12,4.0,4.0,25,0.00,,,0.00,VWS V14.01,2013-04-12 04:16:00,
2013-04-11 21:20:00,61.3,25.2,29.77,NNE,12,1.0,4.0,25,0.00,,,0.00,VWS V14.01,2013-04-12 04:20:00,
2013-04-11 21:25:00,60.8,25.7,29.77,NNE,12,1.0,3.0,26,0.00,,,0.00,VWS V14.01,2013-04-12 04:25:00,
2013-04-11 21:30:00,60.5,26.4,29.77,NNE,12,2.0,4.0,27,0.00,,,0.00,VWS V14.01,2013-04-12 04:30:00,
2013-04-11 21:35:00,60.4,26.3,29.77,NNE,12,0.0,5.0,27,0.00,,,0.00,VWS V14.01,2013-04-12 04:35:00,
2013-04-11 21:40:00,60.1,26.0,29.77,NNE,12,0.0,3.0,27,0.00,,,0.00,VWS V14.01,2013-04-12 04:40:00,
2013-04-11 21:45:00,59.9,25.9,29.77,NNE,12,0.0,1.0,27,0.00,,,0.00,VWS V14.01,2013-04-12 04:45:00,
2013-04-11 21:50:00,59.5,25.5,29.77,NNE,12,0.0,0.0,27,0.00,,,0.00,VWS V14.01,2013-04-12 04:50:00,
2013-04-11 21:55:00,59.0,26.0,29.77,NNE,12,0.0,1.0,28,0.00,,,0.00,VWS V14.01,2013-04-12 04:55:00,
2013-04-11 22:00:00,58.7,25.7,29.77,NNE,12,3.0,3.0,28,0.00,,,0.00,VWS V14.01,2013-04-12 05:00:00,
2013-04-11 22:05:00,58.5,26.4,29.77,NNE,12,4.0,4.0,29,0.00,,,0.00,VWS V14.01,2013-04-12 05:05:00,
2013-04-11 22:10:00,58.3,26.2,29.77,NNE,12,1.0,4.0,29,0.00,,,0.00,VWS V14.01,2013-04-12 05:10:00,
2013-04-11 22:15:00,58.3,25.4,29.77,NNE,12,2.0,3.0,28,0.00,,,0.00,VWS V14.01,2013-04-12 05:15:00,
2013-04-11 22:20:00,58.3,25.4,29.76,NNE,12,2.0,4.0,28,0.00,,,0.00,VWS V14.01,2013-04-12 05:20:00,
2013-04-11 22:25:00,58.2,26.1,29.76,NNE,12,2.0,4.0,29,0.00,,,0.00,VWS V14.01,2013-04-12 05:25:00,
2013-04-11 22:30:00,57.9,25.9,29.77,NNE,12,3.0,3.0,29,0.00,,,0.00,VWS V14.01,2013-04-12 05:30:00,
2013-04-11 22:35:00,57.8,25.8,29.76,NNE,12,1.0,3.0,29,0.00,,,0.00,VWS V14.01,2013-04-12 05:35:00,
2013-04-11 22:41:00,57.7,25.7,29.76,NNE,12,0.0,4.0,29,0.00,,,0.00,VWS V14.01,2013-04-12 05:41:00,
2013-04-11 22:46:00,57.6,25.6,29.76,NNE,12,3.0,4.0,29,0.00,,,0.00,VWS V14.01,2013-04-12 05:46:00,
2013-04-11 22:51:00,57.5,26.3,29.76,NNE,12,1.0,5.0,30,0.00,,,0.00,VWS V14.01,2013-04-12 05:51:00,
2013-04-11 22:56:00,57.1,26.0,29.76,NNE,12,1.0,5.0,30,0.00,,,0.00,VWS V14.01,2013-04-12 05:56:00,
2013-04-11 23:01:00,56.8,25.7,29.76,NNE,12,1.0,3.0,30,0.00,,,0.00,VWS V14.01,2013-04-12 06:01:00,
2013-04-11 23:06:00,56.4,26.2,29.76,NNE,12,2.0,4.0,31,0.00,,,0.00,VWS V14.01,2013-04-12 06:06:00,
2013-04-11 23:11:00,55.8,26.4,29.76,NNE,12,2.0,3.0,32,0.00,,,0.00,VWS V14.01,2013-04-12 06:11:00,
2013-04-11 23:16:00,55.5,26.9,29.76,NNE,12,2.0,3.0,33,0.00,,,0.00,VWS V14.01,2013-04-12 06:16:00,
2013-04-11 23:21:00,55.3,26.7,29.76,NNE,12,5.0,7.0,33,0.00,,,0.00,VWS V14.01,2013-04-12 06:21:00,
2013-04-11 23:26:00,55.3,26.0,29.76,NNE,12,2.0,6.0,32,0.00,,,0.00,VWS V14.01,2013-04-12 06:26:00,
2013-04-11 23:31:00,55.4,26.0,29.76,NNE,12,0.0,4.0,32,0.00,,,0.00,VWS V14.01,2013-04-12 06:31:00,
2013-04-11 23:36:00,55.5,25.4,29.76,NNE,12,1.0,2.0,31,0.00,,,0.00,VWS V14.01,2013-04-12 06:36:00,
2013-04-11 23:41:00,55.5,26.1,29.76,NNE,12,0.0,2.0,32,0.00,,,0.00,VWS V14.01,2013-04-12 06:41:00,
2013-04-11 23:46:00,55.6,25.5,29.76,NNE,12,2.0,3.0,31,0.00,,,0.00,VWS V14.01,2013-04-12 06:46:00,
2013-04-11 23:51:00,55.3,26.0,29.76,NNE,12,2.0,4.0,32,0.00,,,0.00,VWS V14.01,2013-04-12 06:51:00,
2013-04-11 23:56:00,55.0,26.5,29.76,NNE,12,3.0,4.0,33,0.00,,,0.00,VWS V14.01,2013-04-12 06:56:00,